Terminal Aerodrome Forecast
Issued by NWS

Home | Current Version | Previous Version | Text Only | Print | Product List | Glossary On
Versions: 1 2 3 4 5 6 7 8 9 10 11 12 13 14 15 16 17
000
FTUS41 KBOX 251735
TAFHYA
TAF
KHYA 251735Z 2518/2618 23010KT P6SM SKC
     FM260200 22013G23KT P6SM SCT250
     FM260400 22014G24KT P6SM SCT050
     FM260600 23015G26KT P6SM BKN045
     FM260800 24015G25KT P6SM SCT060
     FM261400 28016G24KT P6SM SCT250=

USA.gov is the U.S. government's official web portal to all federal, state and local government web resources and services.